createdAt,value
2019-03-04T00:01:01.751Z,162.73
2019-03-04T00:03:31.539Z,135.00
2019-03-04T00:06:01.192Z,137.60
2019-03-04T00:08:32.916Z,137.90
2019-03-04T00:11:02.308Z,138.30
2019-03-04T00:13:31.943Z,134.73
2019-03-04T00:16:01.702Z,133.83
2019-03-04T00:18:31.479Z,133.63
2019-03-04T00:21:01.145Z,135.43
2019-03-04T00:23:30.783Z,134.43
2019-03-04T00:26:00.632Z,137.27
2019-03-04T00:28:30.263Z,137.53
2019-03-04T00:30:59.891Z,137.63
2019-03-04T00:33:29.599Z,139.23
2019-03-04T00:35:59.231Z,146.87
2019-03-04T00:38:28.876Z,162.33
2019-03-04T00:40:58.523Z,138.47
2019-03-04T00:43:28.228Z,141.97
2019-03-04T00:45:57.862Z,161.77
2019-03-04T00:48:28.771Z,138.20
2019-03-04T00:50:58.479Z,159.60
2019-03-04T00:53:28.116Z,144.00
2019-03-04T00:55:57.751Z,159.73
2019-03-04T00:58:28.518Z,135.10
2019-03-04T01:00:58.215Z,135.73
2019-03-04T01:03:27.859Z,133.27
2019-03-04T01:05:57.517Z,133.17
2019-03-04T01:08:27.226Z,132.47
2019-03-04T01:10:56.947Z,131.90
2019-03-04T01:13:26.663Z,131.37
2019-03-04T01:15:56.307Z,133.10
2019-03-04T01:18:26.072Z,132.30
2019-03-04T01:20:55.725Z,131.93
2019-03-04T01:23:25.431Z,136.23
2019-03-04T01:25:55.071Z,132.40
2019-03-04T01:28:24.703Z,132.20
2019-03-04T01:30:54.362Z,132.17
2019-03-04T01:33:23.983Z,132.37
2019-03-04T01:35:53.619Z,132.73
2019-03-04T01:38:23.244Z,133.10
2019-03-04T01:40:52.895Z,131.87
2019-03-04T01:43:22.515Z,131.67
2019-03-04T01:45:52.255Z,132.27
2019-03-04T01:48:21.934Z,133.57
2019-03-04T01:50:51.584Z,134.37
2019-03-04T01:53:21.202Z,132.20
2019-03-04T01:55:50.851Z,133.13
2019-03-04T01:58:20.483Z,132.07
2019-03-04T02:00:50.135Z,132.53
2019-03-04T02:03:19.763Z,133.50
2019-03-04T02:05:49.396Z,132.30
2019-03-04T02:08:19.118Z,133.97
2019-03-04T02:10:48.896Z,133.53
2019-03-04T02:13:19.495Z,132.50
2019-03-04T02:15:49.803Z,133.67
2019-03-04T02:18:19.435Z,134.27
2019-03-04T02:20:50.039Z,133.77
2019-03-04T02:23:19.696Z,134.10
2019-03-04T02:26:27.668Z,134.30
2019-03-04T02:28:57.386Z,134.77
2019-03-04T02:31:27.051Z,135.77
2019-03-04T02:33:56.736Z,135.63
2019-03-04T02:36:27.423Z,134.23
2019-03-04T02:38:57.069Z,135.77
2019-03-04T02:41:26.703Z,136.43
2019-03-04T02:43:56.333Z,137.33
2019-03-04T02:46:25.972Z,138.40
2019-03-04T02:48:55.613Z,137.27
2019-03-04T02:51:26.342Z,139.83
2019-03-04T02:53:57.017Z,140.20
2019-03-04T02:56:26.648Z,138.90
2019-03-04T02:58:56.301Z,137.90
2019-03-04T03:01:26.887Z,147.30
2019-03-04T03:03:56.524Z,149.53
2019-03-04T03:06:26.157Z,155.53
2019-03-04T03:08:55.859Z,152.53
2019-03-04T03:11:25.505Z,162.07
2019-03-04T03:13:55.138Z,137.57
2019-03-04T03:16:24.756Z,134.80
2019-03-04T03:18:54.392Z,134.33
2019-03-04T03:21:24.027Z,134.13
2019-03-04T03:23:53.649Z,134.13
2019-03-04T03:26:23.381Z,138.10
2019-03-04T03:28:53.007Z,146.53
2019-03-04T03:31:22.650Z,167.03
2019-03-04T03:33:52.304Z,132.20
2019-03-04T03:36:22.073Z,133.00
2019-03-04T03:38:51.687Z,131.40
2019-03-04T03:41:21.322Z,132.40
2019-03-04T03:43:50.955Z,134.77
2019-03-04T03:46:20.596Z,134.63
2019-03-04T03:48:50.230Z,134.43
2019-03-04T03:51:19.859Z,136.00
2019-03-04T03:53:49.494Z,138.60
2019-03-04T03:56:20.178Z,143.50
2019-03-04T03:58:49.887Z,144.33
2019-03-04T04:01:19.660Z,144.57
2019-03-04T04:03:49.283Z,145.70
2019-03-04T04:06:18.921Z,144.77
2019-03-04T04:08:48.543Z,146.07
2019-03-04T04:11:18.173Z,147.80
2019-03-04T04:13:47.794Z,155.43
2019-03-04T04:16:17.429Z,152.40
2019-03-04T04:18:47.059Z,157.33
2019-03-04T04:21:16.771Z,151.83
2019-03-04T04:23:46.471Z,149.93
2019-03-04T04:26:21.979Z,143.07
2019-03-04T04:28:59.200Z,149.47
2019-03-04T04:31:28.892Z,150.77
2019-03-04T04:33:58.528Z,136.40
2019-03-04T04:36:28.151Z,135.90
2019-03-04T04:38:57.780Z,155.03
2019-03-04T04:41:27.412Z,144.87
2019-03-04T04:43:57.031Z,152.57
2019-03-04T04:46:49.100Z,149.10
2019-03-04T04:49:18.806Z,145.80
2019-03-04T04:51:48.927Z,151.53
2019-03-04T04:54:18.558Z,146.87
2019-03-04T04:56:48.195Z,145.90
2019-03-04T04:59:17.818Z,143.50
2019-03-04T05:01:47.467Z,142.70
2019-03-04T05:04:17.175Z,152.80
2019-03-04T05:06:47.775Z,148.53
2019-03-04T05:09:17.407Z,166.87
2019-03-04T05:11:47.040Z,162.43
2019-03-04T05:14:16.663Z,133.77
2019-03-04T05:16:46.386Z,135.47
2019-03-04T05:19:16.096Z,132.23
2019-03-04T05:21:45.727Z,132.17
2019-03-04T05:24:15.351Z,131.10
2019-03-04T05:26:44.987Z,131.93
2019-03-04T05:29:14.756Z,131.17
2019-03-04T05:31:44.391Z,137.60
2019-03-04T05:34:14.020Z,131.13
2019-03-04T05:36:43.651Z,131.33
2019-03-04T05:39:13.307Z,131.93
2019-03-04T05:41:42.948Z,135.83
2019-03-04T05:44:12.585Z,133.17
2019-03-04T05:46:42.219Z,136.33
2019-03-04T05:49:11.864Z,139.87
2019-03-04T05:51:41.532Z,137.40
2019-03-04T05:54:11.211Z,138.40
2019-03-04T05:56:40.867Z,142.03
2019-03-04T05:59:19.310Z,137.70
2019-03-04T06:01:55.207Z,138.80
2019-03-04T06:04:24.833Z,142.73
2019-03-04T06:07:07.269Z,140.80
2019-03-04T06:09:37.083Z,163.57
2019-03-04T06:12:06.729Z,144.80
2019-03-04T06:14:36.359Z,169.73
2019-03-04T06:17:06.074Z,133.47
2019-03-04T06:19:35.707Z,134.30
2019-03-04T06:22:05.346Z,134.00
2019-03-04T06:24:35.972Z,134.70
2019-03-04T06:27:05.681Z,132.73
2019-03-04T06:29:35.395Z,133.83
2019-03-04T06:32:05.107Z,133.53
2019-03-04T06:34:34.735Z,133.80
2019-03-04T06:37:04.447Z,133.00
2019-03-04T06:39:34.148Z,133.30
2019-03-04T06:42:03.910Z,133.53
2019-03-04T06:44:33.671Z,133.60
2019-03-04T06:47:04.484Z,132.93
2019-03-04T06:49:34.171Z,133.47
2019-03-04T06:52:04.166Z,134.23
2019-03-04T06:54:39.815Z,135.63
2019-03-04T06:57:27.899Z,136.73
2019-03-04T07:00:20.051Z,136.73
2019-03-04T07:02:49.759Z,136.63
2019-03-04T07:05:54.147Z,137.90
2019-03-04T07:09:09.308Z,136.40
2019-03-04T07:11:40.281Z,137.47
2019-03-04T07:14:10.122Z,138.70
2019-03-04T07:16:39.872Z,141.00
2019-03-04T07:19:11.416Z,137.13
2019-03-04T07:21:41.185Z,137.87
2019-03-04T07:24:11.694Z,145.90
2019-03-04T07:26:41.516Z,148.90
2019-03-04T07:29:11.291Z,140.50
2019-03-04T07:31:41.053Z,168.10
2019-03-04T07:34:10.820Z,131.87
2019-03-04T07:36:40.598Z,131.13
2019-03-04T07:39:13.443Z,130.27
2019-03-04T07:41:44.884Z,134.30
2019-03-04T07:44:14.670Z,130.67
2019-03-04T07:46:44.454Z,130.93
2019-03-04T07:49:14.221Z,136.20
2019-03-04T07:51:43.964Z,132.43
2019-03-04T07:54:13.743Z,133.57
2019-03-04T07:56:43.592Z,132.67
2019-03-04T07:59:13.455Z,134.03
2019-03-04T08:01:43.287Z,135.53
2019-03-04T08:04:13.082Z,135.20
2019-03-04T08:06:42.916Z,138.63
2019-03-04T08:10:00.926Z,139.53
2019-03-04T08:12:56.039Z,147.60
2019-03-04T08:15:27.468Z,145.37
2019-03-04T08:17:57.158Z,153.57
2019-03-04T08:20:26.915Z,178.20
2019-03-04T08:22:56.609Z,156.60
2019-03-04T08:25:26.367Z,137.03
2019-03-04T08:27:56.203Z,144.43
2019-03-04T08:30:26.033Z,139.17
2019-03-04T08:32:55.895Z,144.90
2019-03-04T08:35:25.723Z,124.20
2019-03-04T08:37:55.484Z,129.83
2019-03-04T08:40:25.263Z,124.90
2019-03-04T08:42:55.032Z,129.37
2019-03-04T08:45:24.891Z,130.13
2019-03-04T08:47:54.600Z,122.80
2019-03-04T08:50:24.983Z,122.87
2019-03-04T08:52:54.835Z,126.50
2019-03-04T08:55:24.667Z,120.63
2019-03-04T08:57:54.506Z,122.40
2019-03-04T09:00:27.610Z,122.33
2019-03-04T09:02:57.456Z,120.63
2019-03-04T09:05:27.290Z,128.43
2019-03-04T09:07:57.119Z,120.50
2019-03-04T09:10:28.462Z,126.23
2019-03-04T09:12:58.239Z,121.00
2019-03-04T09:15:28.267Z,125.43
2019-03-04T09:17:58.123Z,122.13
2019-03-04T09:20:28.083Z,122.80
2019-03-04T09:22:58.070Z,121.77
2019-03-04T09:25:30.879Z,121.77
2019-03-04T09:28:00.681Z,127.83
2019-03-04T09:30:31.482Z,122.10
2019-03-04T09:33:01.232Z,120.40
2019-03-04T09:35:32.691Z,121.73
2019-03-04T09:38:02.448Z,120.30
2019-03-04T09:40:32.291Z,120.07
2019-03-04T09:43:02.055Z,125.70
2019-03-04T09:45:38.761Z,122.33
2019-03-04T09:48:03.381Z,123.00
2019-03-04T09:50:33.323Z,122.43
2019-03-04T09:53:03.095Z,121.90
2019-03-04T09:55:32.859Z,121.73
2019-03-04T09:58:02.707Z,124.37
2019-03-04T10:00:37.491Z,121.47
2019-03-04T10:04:00.493Z,121.63
2019-03-04T10:07:00.087Z,128.70
2019-03-04T10:10:03.522Z,123.30
2019-03-04T10:13:05.659Z,122.37
2019-03-04T10:16:18.944Z,121.07
2019-03-04T10:19:15.215Z,121.23
2019-03-04T10:21:51.550Z,121.37
2019-03-04T10:24:58.179Z,119.70
2019-03-04T10:28:11.762Z,123.93
2019-03-04T10:31:34.379Z,120.07
2019-03-04T10:34:57.019Z,122.40
2019-03-04T10:37:44.431Z,120.87
2019-03-04T10:41:01.627Z,119.10
2019-03-04T10:43:55.167Z,123.97
2019-03-04T10:46:51.192Z,123.63
2019-03-04T10:49:20.963Z,128.97
2019-03-04T10:51:50.751Z,122.03
2019-03-04T10:54:20.519Z,123.33
2019-03-04T10:56:50.284Z,131.53
2019-03-04T10:59:20.038Z,129.90
2019-03-04T11:01:50.189Z,125.90
2019-03-04T11:04:20.230Z,123.97
2019-03-04T11:06:50.205Z,128.30
2019-03-04T11:09:19.964Z,122.20
2019-03-04T11:11:49.799Z,120.60
2019-03-04T11:14:19.559Z,122.73
2019-03-04T11:16:49.413Z,121.57
2019-03-04T11:19:19.239Z,122.03
2019-03-04T11:21:49.072Z,119.60
2019-03-04T11:24:18.763Z,122.77
2019-03-04T11:26:48.536Z,119.50
2019-03-04T11:29:18.368Z,118.50
2019-03-04T11:31:48.123Z,122.47
2019-03-04T11:34:17.885Z,118.73
2019-03-04T11:36:47.586Z,120.60
2019-03-04T11:39:53.279Z,119.93
2019-03-04T11:42:23.052Z,123.23
2019-03-04T11:44:52.764Z,118.20
2019-03-04T11:47:25.727Z,118.20
2019-03-04T11:49:55.407Z,123.93
2019-03-04T11:52:25.241Z,119.17
2019-03-04T11:54:55.911Z,119.43
2019-03-04T11:57:25.671Z,118.10
2019-03-04T11:59:55.382Z,120.00
2019-03-04T12:02:38.530Z,134.53
2019-03-04T12:05:01.474Z,118.20
2019-03-04T12:07:31.234Z,118.20
2019-03-04T12:10:01.007Z,119.30
2019-03-04T12:12:30.708Z,129.93
2019-03-04T12:15:00.575Z,120.97
2019-03-04T12:17:30.346Z,121.03
2019-03-04T12:20:00.309Z,119.80
2019-03-04T12:22:30.139Z,122.20
2019-03-04T12:24:59.968Z,120.83
2019-03-04T12:27:29.651Z,120.70
2019-03-04T12:29:59.355Z,123.60
2019-03-04T12:32:33.643Z,121.13
2019-03-04T12:35:04.967Z,119.70
2019-03-04T12:37:34.742Z,125.40
2019-03-04T12:40:06.571Z,119.07
2019-03-04T12:42:36.347Z,120.97
2019-03-04T12:45:06.983Z,121.90
2019-03-04T12:47:36.743Z,132.03
2019-03-04T12:50:08.487Z,121.77
2019-03-04T12:52:38.336Z,122.40
2019-03-04T12:55:08.713Z,123.57
2019-03-04T12:57:40.127Z,126.73
2019-03-04T13:00:13.467Z,123.90
2019-03-04T13:02:44.483Z,127.20
2019-03-04T13:05:14.563Z,121.37
2019-03-04T13:07:44.331Z,122.73
2019-03-04T13:10:14.267Z,121.43
2019-03-04T13:12:45.184Z,120.90
2019-03-04T13:15:17.368Z,124.50
2019-03-04T13:17:48.801Z,119.90
2019-03-04T13:20:18.823Z,120.80
2019-03-04T13:22:48.599Z,121.03
2019-03-04T13:25:18.435Z,122.17
2019-03-04T13:27:48.199Z,122.70
2019-03-04T13:30:19.983Z,121.17
2019-03-04T13:32:49.831Z,121.13
2019-03-04T13:35:24.606Z,120.83
2019-03-04T13:37:53.251Z,119.13
2019-03-04T13:40:23.078Z,121.53
2019-03-04T13:42:52.850Z,121.97
2019-03-04T13:45:22.911Z,123.23
2019-03-04T13:47:52.702Z,123.03
2019-03-04T13:50:23.439Z,121.40
2019-03-04T13:52:53.156Z,125.00
2019-03-04T13:55:22.987Z,121.70
2019-03-04T13:57:52.927Z,122.93
2019-03-04T14:00:22.836Z,120.03
2019-03-04T14:02:52.602Z,122.43
2019-03-04T14:05:22.514Z,122.77
2019-03-04T14:07:52.378Z,120.43
2019-03-04T14:10:22.399Z,120.30
2019-03-04T14:12:52.287Z,127.10
2019-03-04T14:15:24.916Z,123.87
2019-03-04T14:17:54.763Z,122.47
2019-03-04T14:20:24.526Z,123.57
2019-03-04T14:22:57.865Z,123.87
2019-03-04T14:25:26.802Z,122.10
2019-03-04T14:27:56.586Z,122.37
2019-03-04T14:30:26.288Z,127.50
2019-03-04T14:32:55.981Z,123.07
2019-03-04T14:35:26.715Z,123.40
2019-03-04T14:37:56.557Z,122.00
2019-03-04T14:40:26.399Z,123.60
2019-03-04T14:42:56.261Z,121.07
2019-03-04T14:45:26.063Z,124.43
2019-03-04T14:47:55.907Z,130.77
2019-03-04T14:50:25.939Z,128.67
2019-03-04T14:52:55.796Z,124.87
2019-03-04T14:55:25.588Z,125.70
2019-03-04T14:57:55.351Z,121.40
2019-03-04T15:00:29.543Z,127.70
2019-03-04T15:03:00.132Z,121.77
2019-03-04T15:05:29.911Z,125.00
2019-03-04T15:07:59.723Z,122.67
2019-03-04T15:10:29.487Z,121.23
2019-03-04T15:12:59.587Z,121.93
2019-03-04T15:15:29.698Z,126.17
2019-03-04T15:17:59.498Z,131.00
2019-03-04T15:20:30.041Z,127.33
2019-03-04T15:22:59.845Z,123.27
2019-03-04T15:25:30.642Z,124.17
2019-03-04T15:28:12.630Z,122.40
2019-03-04T15:30:43.194Z,123.87
2019-03-04T15:33:18.109Z,122.70
2019-03-04T15:35:44.534Z,122.63
2019-03-04T15:38:14.342Z,123.60
2019-03-04T15:40:44.170Z,126.83
2019-03-04T15:43:13.858Z,127.80
2019-03-04T15:45:46.107Z,124.33
2019-03-04T15:48:16.327Z,122.00
2019-03-04T15:50:46.177Z,123.73
2019-03-04T15:53:16.019Z,124.27
2019-03-04T15:55:45.847Z,123.10
2019-03-04T15:58:15.694Z,123.03
2019-03-04T16:00:45.584Z,126.50
2019-03-04T16:03:15.347Z,122.70
2019-03-04T16:05:45.330Z,122.43
2019-03-04T16:08:15.111Z,127.03
2019-03-04T16:10:44.884Z,124.53
2019-03-04T16:13:14.764Z,128.30
2019-03-04T16:15:45.088Z,127.00
2019-03-04T16:18:14.975Z,123.97
2019-03-04T16:20:44.826Z,125.63
2019-03-04T16:23:14.726Z,130.73
2019-03-04T16:25:44.496Z,122.47
2019-03-04T16:28:19.774Z,122.80
2019-03-04T16:30:51.019Z,123.40
2019-03-04T16:33:22.322Z,125.17
2019-03-04T16:35:52.079Z,124.27
2019-03-04T16:38:22.024Z,123.13
2019-03-04T16:40:51.838Z,126.17
2019-03-04T16:43:21.715Z,126.47
2019-03-04T16:45:51.478Z,127.30
2019-03-04T16:48:21.314Z,124.40
2019-03-04T16:50:51.067Z,123.60
2019-03-04T16:53:21.448Z,124.43
2019-03-04T16:55:51.231Z,123.40
2019-03-04T16:58:21.007Z,125.03
2019-03-04T17:00:50.845Z,123.67
2019-03-04T17:03:20.695Z,125.50
2019-03-04T17:05:50.455Z,123.30
2019-03-04T17:08:21.343Z,125.20
2019-03-04T17:10:51.172Z,124.87
2019-03-04T17:13:20.983Z,132.90
2019-03-04T17:15:50.808Z,127.73
2019-03-04T17:18:20.607Z,124.57
2019-03-04T17:20:50.286Z,124.73
2019-03-04T17:23:20.246Z,131.53
2019-03-04T17:25:50.019Z,127.40
2019-03-04T17:28:19.980Z,128.17
2019-03-04T17:30:49.770Z,128.70
2019-03-04T17:33:20.580Z,124.30
2019-03-04T17:35:50.491Z,130.10
2019-03-04T17:38:20.282Z,131.47
2019-03-04T17:40:50.175Z,139.07
2019-03-04T17:43:19.951Z,133.27
2019-03-04T17:45:49.736Z,138.07
2019-03-04T17:48:19.543Z,138.43
2019-03-04T17:50:49.369Z,125.50
2019-03-04T17:53:19.055Z,122.17
2019-03-04T17:55:48.735Z,124.43
2019-03-04T17:58:18.522Z,129.63
2019-03-04T18:00:52.547Z,154.03
2019-03-04T18:03:23.455Z,138.70
2019-03-04T18:05:53.612Z,136.60
2019-03-04T18:08:23.476Z,127.80
2019-03-04T18:10:53.251Z,133.20
2019-03-04T18:13:23.021Z,141.57
2019-03-04T18:15:53.862Z,132.10
2019-03-04T18:18:23.563Z,124.57
2019-03-04T18:20:53.255Z,125.17
2019-03-04T18:23:23.019Z,122.43
2019-03-04T18:26:03.437Z,135.43
2019-03-04T18:29:01.166Z,127.13
2019-03-04T18:32:01.355Z,122.97
2019-03-04T18:35:04.880Z,130.87
2019-03-04T18:37:50.974Z,135.60
2019-03-04T18:40:56.830Z,127.43
2019-03-04T18:43:54.316Z,136.83
2019-03-04T18:47:04.233Z,121.27
2019-03-04T18:49:34.079Z,140.30
2019-03-04T18:52:03.942Z,122.23
2019-03-04T18:54:33.642Z,141.03
2019-03-04T18:57:05.011Z,125.37
2019-03-04T18:59:34.706Z,122.93
2019-03-04T19:02:04.542Z,123.10
2019-03-04T19:04:34.306Z,130.90
2019-03-04T19:07:04.212Z,133.37
2019-03-04T19:09:34.050Z,145.43
2019-03-04T19:12:03.996Z,125.57
2019-03-04T19:14:33.680Z,126.03
2019-03-04T19:17:03.431Z,135.10
2019-03-04T19:19:33.127Z,135.80
2019-03-04T19:22:02.967Z,126.00
2019-03-04T19:24:32.736Z,135.50
2019-03-04T19:27:02.419Z,134.40
2019-03-04T19:29:32.262Z,120.40
2019-03-04T19:32:02.086Z,121.47
2019-03-04T19:34:32.007Z,124.67
2019-03-04T19:37:01.677Z,131.47
2019-03-04T19:39:31.606Z,124.10
2019-03-04T19:42:01.383Z,126.90
2019-03-04T19:44:31.227Z,143.70
2019-03-04T19:47:00.908Z,143.37
2019-03-04T19:49:31.588Z,124.93
2019-03-04T19:52:01.336Z,123.27
2019-03-04T19:54:31.178Z,119.03
2019-03-04T19:57:01.008Z,122.97
2019-03-04T19:59:30.851Z,124.83
2019-03-04T20:02:02.150Z,137.87
2019-03-04T20:04:32.195Z,120.73
2019-03-04T20:07:02.039Z,119.70
2019-03-04T20:09:31.727Z,125.97
2019-03-04T20:12:01.584Z,138.33
2019-03-04T20:14:31.445Z,129.77
2019-03-04T20:17:01.220Z,133.90
2019-03-04T20:19:31.106Z,129.60
2019-03-04T20:22:00.791Z,139.60
2019-03-04T20:24:30.684Z,128.77
2019-03-04T20:27:00.519Z,122.20
2019-03-04T20:29:30.267Z,123.57
2019-03-04T20:32:00.093Z,136.73
2019-03-04T20:34:29.813Z,119.77
2019-03-04T20:37:00.475Z,122.67
2019-03-04T20:39:30.316Z,128.57
2019-03-04T20:42:00.834Z,122.87
2019-03-04T20:44:30.674Z,136.50
2019-03-04T20:47:00.472Z,130.07
2019-03-04T20:49:30.279Z,136.10
2019-03-04T20:52:00.055Z,126.97
2019-03-04T20:54:29.816Z,120.77
2019-03-04T20:56:59.583Z,121.77
2019-03-04T20:59:29.339Z,120.67
2019-03-04T21:01:59.107Z,126.43
2019-03-04T21:04:28.940Z,135.97
2019-03-04T21:06:58.790Z,135.43
2019-03-04T21:09:28.823Z,122.53
2019-03-04T21:11:59.396Z,123.63
2019-03-04T21:14:29.601Z,137.63
2019-03-04T21:16:59.504Z,120.87
2019-03-04T21:19:29.204Z,119.67
2019-03-04T21:21:59.937Z,139.90
2019-03-04T21:24:29.751Z,119.27
2019-03-04T21:26:59.847Z,116.60
2019-03-04T21:30:19.611Z,121.13
2019-03-04T21:32:53.751Z,119.53
2019-03-04T21:36:14.347Z,120.83
2019-03-04T21:38:43.277Z,124.73
2019-03-04T21:41:35.547Z,118.60
2019-03-04T21:44:39.675Z,120.07
2019-03-04T21:47:20.739Z,122.03
2019-03-04T21:49:52.970Z,130.43
2019-03-04T21:52:29.114Z,127.33
2019-03-04T21:54:59.042Z,132.87
2019-03-04T21:57:34.822Z,129.20
2019-03-04T22:00:09.060Z,138.40
2019-03-04T22:02:56.164Z,129.17
2019-03-04T22:05:26.151Z,122.00
2019-03-04T22:07:55.967Z,120.57
2019-03-04T22:10:25.903Z,123.10
2019-03-04T22:12:57.360Z,121.23
2019-03-04T22:15:27.847Z,122.60
2019-03-04T22:17:57.789Z,121.00
2019-03-04T22:20:27.572Z,119.47
2019-03-04T22:22:57.410Z,121.97
2019-03-04T22:25:27.247Z,121.43
2019-03-04T22:27:57.114Z,125.13
2019-03-04T22:30:26.813Z,132.90
2019-03-04T22:32:56.602Z,119.50
2019-03-04T22:35:26.427Z,121.37
2019-03-04T22:37:56.190Z,135.37
2019-03-04T22:40:26.104Z,125.70
2019-03-04T22:42:55.784Z,128.83
2019-03-04T22:45:25.634Z,132.73
2019-03-04T22:47:55.410Z,140.63
2019-03-04T22:50:25.132Z,133.83
2019-03-04T22:52:54.826Z,121.33
2019-03-04T22:55:27.444Z,117.93
2019-03-04T22:57:57.166Z,117.50
2019-03-04T23:01:30.329Z,118.83
2019-03-04T23:04:15.268Z,115.27
2019-03-04T23:06:52.606Z,116.73
2019-03-04T23:09:22.495Z,115.37
2019-03-04T23:11:57.679Z,117.30
2019-03-04T23:14:28.787Z,120.67
2019-03-04T23:17:00.184Z,119.00
2019-03-04T23:19:30.107Z,121.77
2019-03-04T23:21:59.871Z,121.37
2019-03-04T23:24:29.643Z,119.57
2019-03-04T23:26:59.403Z,123.20
2019-03-04T23:29:29.092Z,121.67
2019-03-04T23:31:59.755Z,122.87
2019-03-04T23:34:29.514Z,137.73
2019-03-04T23:36:59.270Z,135.50
2019-03-04T23:39:28.947Z,135.87
2019-03-04T23:41:58.719Z,122.30
2019-03-04T23:44:28.483Z,132.43
2019-03-04T23:46:58.170Z,124.17
2019-03-04T23:49:27.867Z,120.93
2019-03-04T23:51:57.694Z,120.20
2019-03-04T23:54:28.363Z,135.57
2019-03-04T23:56:58.226Z,135.93
2019-03-04T23:59:27.909Z,137.67
